Time;durP1;ratioP1;P1;durP2;ratioP2;P2;SDS_P1;SDS_P2;PMS_P1;PMS_P2;Temp;Humidity;BMP_temperature;BMP_pressure;BME280_temperature;BME280_humidity;BME280_pressure;Samples;Min_cycle;Max_cycle;Signal;HPM_P1;HPM_P2
2022/06/01 00:00:09;;;;;;;0.10;0.10;;;14.00;99.90;;;;;;5097828;28;20545;-78
2022/06/01 00:02:35;;;;;;;0.10;0.10;;;14.10;99.90;;;;;;5081802;28;20233;-78
2022/06/01 00:05:01;;;;;;;0.33;0.10;;;14.20;99.90;;;;;;5081521;28;20221;-78
2022/06/01 00:07:26;;;;;;;0.27;0.27;;;14.30;99.90;;;;;;5082115;28;20206;-78
2022/06/01 00:09:54;;;;;;;0.20;0.20;;;14.30;99.90;;;;;;5083315;28;20191;-78
2022/06/01 00:12:20;;;;;;;0.50;0.50;;;14.30;99.90;;;;;;5082303;28;20171;-78
2022/06/01 00:14:46;;;;;;;0.10;0.10;;;14.20;99.90;;;;;;5081641;28;20204;-78
2022/06/01 00:17:12;;;;;;;0.17;0.17;;;13.90;99.90;;;;;;5081437;28;21082;-78
2022/06/01 00:19:37;;;;;;;0.23;0.23;;;13.80;99.90;;;;;;5080230;28;20176;-78
2022/06/01 00:22:11;;;;;;;2.27;0.33;;;13.70;99.90;;;;;;5081486;28;20597;-78
2022/06/01 00:24:38;;;;;;;0.60;0.60;;;13.80;99.90;;;;;;5080583;28;20203;-78
2022/06/01 00:27:08;;;;;;;0.20;0.20;;;13.90;99.90;;;;;;5081289;28;20298;-78
2022/06/01 00:29:34;;;;;;;0.40;0.30;;;13.80;99.90;;;;;;5081536;28;20182;-78
2022/06/01 00:31:59;;;;;;;1.43;0.30;;;13.60;99.90;;;;;;5080923;28;20177;-78
2022/06/01 00:34:26;;;;;;;0.20;0.20;;;13.60;99.90;;;;;;5081335;28;20210;-78
2022/06/01 00:36:51;;;;;;;0.13;0.13;;;13.80;99.90;;;;;;5097929;28;20331;-78
2022/06/01 00:39:17;;;;;;;0.20;0.20;;;13.70;99.90;;;;;;5081795;28;20292;-78
2022/06/01 00:41:43;;;;;;;0.40;0.40;;;13.70;99.90;;;;;;5081588;28;20188;-78
2022/06/01 00:44:09;;;;;;;0.20;0.20;;;13.60;99.90;;;;;;5080580;28;20298;-78
2022/06/01 00:46:35;;;;;;;0.10;0.10;;;13.60;99.90;;;;;;5080799;28;20192;-78
2022/06/01 00:49:14;;;;;;;0.10;0.10;;;13.70;99.90;;;;;;5081283;28;20770;-78
2022/06/01 00:51:41;;;;;;;0.63;0.63;;;13.60;99.90;;;;;;5082017;28;20172;-77
2022/06/01 00:54:07;;;;;;;0.20;0.20;;;13.70;99.90;;;;;;5080360;28;20214;-78
2022/06/01 00:56:38;;;;;;;0.17;0.17;;;13.70;99.90;;;;;;5082716;28;20278;-78
2022/06/01 00:59:07;;;;;;;0.10;0.10;;;13.60;99.90;;;;;;5081139;28;20555;-78
2022/06/01 01:01:33;;;;;;;0.90;0.90;;;13.40;99.90;;;;;;5081061;28;20223;-78
2022/06/01 01:04:01;;;;;;;0.20;0.20;;;13.20;99.90;;;;;;5080325;28;20232;-78
2022/06/01 01:06:33;;;;;;;0.23;0.23;;;13.10;99.90;;;;;;5082674;28;20197;-78
2022/06/01 01:08:59;;;;;;;1.20;0.40;;;12.90;99.90;;;;;;5081759;28;20254;-78
2022/06/01 01:11:47;;;;;;;0.20;0.20;;;12.60;99.90;;;;;;5082785;28;20183;-78
2022/06/01 01:14:16;;;;;;;0.13;0.13;;;12.50;99.90;;;;;;5080076;28;20301;-78
2022/06/01 01:16:42;;;;;;;0.20;0.20;;;12.60;99.90;;;;;;5097321;28;20187;-78
2022/06/01 01:19:16;;;;;;;0.20;0.20;;;12.60;99.90;;;;;;5079825;28;20195;-78
2022/06/01 01:22:10;;;;;;;0.10;0.10;;;12.70;99.90;;;;;;5080849;28;20205;-78
2022/06/01 01:24:39;;;;;;;0.40;0.40;;;12.80;99.90;;;;;;5081303;28;20231;-78
2022/06/01 01:27:04;;;;;;;0.20;0.20;;;12.90;99.90;;;;;;5082471;28;20194;-78
2022/06/01 01:29:32;;;;;;;0.30;0.30;;;13.00;99.90;;;;;;5080264;28;20215;-78
2022/06/01 01:31:58;;;;;;;0.30;0.30;;;13.00;99.90;;;;;;5080717;28;20180;-78
2022/06/01 01:34:24;;;;;;;0.83;0.30;;;13.10;99.90;;;;;;5080225;28;20642;-78
2022/06/01 01:36:53;;;;;;;0.10;0.10;;;13.20;99.90;;;;;;5082092;28;20258;-78
2022/06/01 01:39:19;;;;;;;0.70;0.20;;;13.20;99.90;;;;;;5080107;28;20276;-78
2022/06/01 01:41:48;;;;;;;0.20;0.20;;;13.10;99.90;;;;;;5080168;28;20304;-78
2022/06/01 01:44:46;;;;;;;0.20;0.20;;;13.10;99.90;;;;;;5079889;28;20290;-78
2022/06/01 01:47:12;;;;;;;0.20;0.20;;;13.30;99.90;;;;;;5068304;28;20192;-77
2022/06/01 01:49:39;;;;;;;1.60;0.40;;;13.20;99.90;;;;;;5082182;28;20543;-78
2022/06/01 01:52:18;;;;;;;0.17;0.17;;;13.20;99.90;;;;;;5080966;28;21075;-78
2022/06/01 01:54:50;;;;;;;0.27;0.27;;;13.20;99.90;;;;;;5081777;28;20226;-78
2022/06/01 01:57:37;;;;;;;0.20;0.20;;;13.40;99.90;;;;;;5083533;28;20256;-78
2022/06/01 02:00:24;;;;;;;0.37;0.37;;;13.40;99.90;;;;;;5083774;28;20281;-78
2022/06/01 02:03:01;;;;;;;0.20;0.20;;;13.50;99.90;;;;;;5085042;28;20173;-78
2022/06/01 02:08:28;;;;;;;0.20;0.20;;;13.30;99.90;;;;;;5084964;28;20230;-78
2022/06/01 02:13:52;;;;;;;1.30;0.63;;;13.20;99.90;;;;;;5084512;28;20236;-79
2022/06/01 02:16:20;;;;;;;2.43;0.30;;;13.40;99.90;;;;;;5084995;28;20187;-79
2022/06/01 02:18:50;;;;;;;0.20;0.20;;;13.40;99.90;;;;;;5083569;28;20277;-78
2022/06/01 02:21:20;;;;;;;0.20;0.20;;;13.50;99.90;;;;;;5084404;28;20651;-78
2022/06/01 02:23:48;;;;;;;0.30;0.30;;;13.40;99.90;;;;;;5084257;28;20207;-78
2022/06/01 02:26:14;;;;;;;0.53;0.13;;;13.50;99.90;;;;;;5100485;28;20206;-78
2022/06/01 02:28:43;;;;;;;0.33;0.20;;;13.50;99.90;;;;;;5084576;28;20210;-78
2022/06/01 02:31:11;;;;;;;0.30;0.30;;;13.50;99.90;;;;;;5082809;28;20385;-78
2022/06/01 02:33:38;;;;;;;0.20;0.20;;;13.50;99.90;;;;;;5101089;28;20736;-78
2022/06/01 02:36:07;;;;;;;0.20;0.20;;;13.50;99.90;;;;;;5083296;28;20190;-78
2022/06/01 02:38:53;;;;;;;0.10;0.10;;;13.60;99.90;;;;;;5100430;28;20186;-78
2022/06/01 02:44:03;;;;;;;0.30;0.30;;;13.30;99.90;;;;;;5083985;28;20242;-78
2022/06/01 02:46:29;;;;;;;0.10;0.10;;;13.30;99.90;;;;;;5100377;28;20204;-78
2022/06/01 02:48:55;;;;;;;0.70;0.70;;;13.30;99.90;;;;;;5099908;28;20242;-78
2022/06/01 02:51:21;;;;;;;0.20;0.20;;;13.40;99.90;;;;;;5084573;28;20203;-78
2022/06/01 02:53:47;;;;;;;0.23;0.23;;;13.50;99.90;;;;;;5081728;28;20253;-78
2022/06/01 02:56:13;;;;;;;2.27;0.37;;;13.50;99.90;;;;;;5082411;28;20290;-78
2022/06/01 02:58:39;;;;;;;0.20;0.20;;;13.40;99.90;;;;;;5083701;28;20178;-78
2022/06/01 03:01:06;;;;;;;0.33;0.30;;;13.50;99.90;;;;;;5084231;28;20173;-79
2022/06/01 03:03:32;;;;;;;0.30;0.30;;;13.60;99.90;;;;;;5084024;28;20192;-78
2022/06/01 03:05:58;;;;;;;0.10;0.10;;;13.60;99.90;;;;;;5082504;28;20264;-78
2022/06/01 03:08:25;;;;;;;0.27;0.27;;;13.60;99.90;;;;;;5081087;28;20300;-78
2022/06/01 03:10:51;;;;;;;0.20;0.20;;;13.60;99.90;;;;;;5084084;28;20195;-78
2022/06/01 03:13:18;;;;;;;0.83;0.30;;;13.40;99.90;;;;;;5082243;28;20234;-78
2022/06/01 03:15:43;;;;;;;0.53;0.53;;;13.20;99.90;;;;;;5082734;28;20281;-78
2022/06/01 03:18:08;;;;;;;0.93;0.30;;;13.10;99.90;;;;;;5083051;28;20660;-78
2022/06/01 03:20:34;;;;;;;0.10;0.10;;;13.20;99.90;;;;;;5081311;28;20220;-78
2022/06/01 03:23:00;;;;;;;0.20;0.20;;;13.20;99.90;;;;;;5083223;28;20193;-78
2022/06/01 03:25:27;;;;;;;0.20;0.20;;;13.20;99.90;;;;;;5082656;28;20219;-79
2022/06/01 03:27:57;;;;;;;0.30;0.30;;;13.20;99.90;;;;;;5082089;28;20695;-79
2022/06/01 03:30:23;;;;;;;0.30;0.30;;;13.20;99.90;;;;;;5082271;28;20181;-78
2022/06/01 03:32:49;;;;;;;0.10;0.10;;;13.30;99.90;;;;;;5072680;28;20196;-78
2022/06/01 03:35:18;;;;;;;0.43;0.43;;;13.40;99.90;;;;;;5077418;28;20211;-78
2022/06/01 03:37:44;;;;;;;0.10;0.10;;;13.40;99.90;;;;;;5080714;28;20200;-78
2022/06/01 03:40:10;;;;;;;0.20;0.20;;;13.50;99.90;;;;;;5080757;28;20190;-78
2022/06/01 03:42:36;;;;;;;0.30;0.30;;;13.50;99.90;;;;;;5081965;28;20189;-78
2022/06/01 03:47:46;;;;;;;0.27;0.27;;;14.10;99.90;;;;;;5083338;28;20306;-78
2022/06/01 03:50:12;;;;;;;0.13;0.13;;;15.00;99.90;;;;;;5077125;28;20276;-79
2022/06/01 03:52:39;;;;;;;0.20;0.20;;;15.70;99.90;;;;;;5076381;28;20298;-78
2022/06/01 03:55:08;;;;;;;0.20;0.20;;;16.20;99.90;;;;;;5078425;28;20241;-78
2022/06/01 03:57:37;;;;;;;0.30;0.30;;;15.80;99.90;;;;;;5078698;28;20218;-79
2022/06/01 04:00:08;;;;;;;0.57;0.40;;;15.20;99.90;;;;;;5080007;28;20710;-78
2022/06/01 04:02:33;;;;;;;0.10;0.10;;;14.90;99.90;;;;;;5081059;28;20190;-78
2022/06/01 04:04:59;;;;;;;0.10;0.10;;;14.70;99.90;;;;;;5081194;28;20211;-78
2022/06/01 04:07:25;;;;;;;0.33;0.33;;;14.70;99.90;;;;;;5081578;28;20218;-79
2022/06/01 04:09:51;;;;;;;0.93;0.40;;;14.70;99.90;;;;;;5081986;28;21286;-78
2022/06/01 04:12:16;;;;;;;0.30;0.23;;;14.70;99.90;;;;;;5082775;28;20234;-79
2022/06/01 04:14:42;;;;;;;0.67;0.43;;;14.60;99.90;;;;;;5080721;28;20217;-78
2022/06/01 04:17:07;;;;;;;0.50;0.30;;;15.90;99.90;;;;;;5079690;28;20234;-78
2022/06/01 04:19:33;;;;;;;0.30;0.30;;;17.00;99.90;;;;;;5079091;28;20207;-79
2022/06/01 04:21:59;;;;;;;0.20;0.20;;;16.90;99.90;;;;;;5081052;28;20280;-78
2022/06/01 04:24:29;;;;;;;0.20;0.20;;;15.80;99.90;;;;;;5081589;28;20211;-78
2022/06/01 04:26:55;;;;;;;0.60;0.37;;;14.80;99.90;;;;;;5080052;28;20673;-79
2022/06/01 04:29:21;;;;;;;1.20;0.30;;;14.20;99.90;;;;;;5083344;28;20214;-79
2022/06/01 04:31:47;;;;;;;0.30;0.30;;;14.00;99.90;;;;;;5079755;28;20653;-78
2022/06/01 04:34:13;;;;;;;0.17;0.17;;;14.30;99.90;;;;;;5082717;28;20199;-78
2022/06/01 04:36:39;;;;;;;0.17;0.17;;;14.80;99.90;;;;;;5081633;28;20192;-78
2022/06/01 04:39:06;;;;;;;0.43;0.43;;;15.20;99.90;;;;;;5082435;28;20186;-78
2022/06/01 04:41:33;;;;;;;0.33;0.33;;;15.40;99.90;;;;;;5078795;28;20225;-79
2022/06/01 04:43:58;;;;;;;0.30;0.30;;;15.60;99.90;;;;;;5079894;28;20688;-78
2022/06/01 04:46:24;;;;;;;0.60;0.60;;;15.50;99.90;;;;;;5080252;28;20198;-79
2022/06/01 04:48:49;;;;;;;0.20;0.20;;;15.30;99.90;;;;;;5079396;28;20257;-79
2022/06/01 04:51:15;;;;;;;0.57;0.20;;;15.30;99.90;;;;;;5081032;28;20194;-79
2022/06/01 04:53:43;;;;;;;0.37;0.37;;;15.40;99.90;;;;;;5080725;28;20222;-79
2022/06/01 04:56:11;;;;;;;0.57;0.30;;;15.40;99.90;;;;;;5079578;28;20193;-78
2022/06/01 04:58:37;;;;;;;0.20;0.20;;;15.40;99.90;;;;;;5081359;28;20215;-78
2022/06/01 05:01:02;;;;;;;0.93;0.67;;;15.30;99.90;;;;;;5080989;28;20187;-78
2022/06/01 05:03:28;;;;;;;0.27;0.27;;;15.20;99.90;;;;;;5080636;28;20237;-78
2022/06/01 05:05:53;;;;;;;0.60;0.60;;;15.00;99.90;;;;;;5080165;28;20198;-79
2022/06/01 05:08:18;;;;;;;0.67;0.67;;;15.00;99.90;;;;;;5080734;28;20699;-79
2022/06/01 05:10:44;;;;;;;0.30;0.30;;;14.90;99.90;;;;;;5079627;28;20213;-79
2022/06/01 05:13:10;;;;;;;0.30;0.30;;;14.90;99.90;;;;;;5081417;28;20181;-82
2022/06/01 05:15:55;;;;;;;0.27;0.27;;;14.90;99.90;;;;;;5081519;28;20674;-80
2022/06/01 05:18:22;;;;;;;0.20;0.20;;;15.00;99.90;;;;;;5082880;28;20271;-82
2022/06/01 05:20:48;;;;;;;0.23;0.23;;;15.00;99.90;;;;;;5081776;28;20248;-82
2022/06/01 05:23:16;;;;;;;0.23;0.23;;;15.00;99.90;;;;;;5083138;28;20194;-80
2022/06/01 05:25:43;;;;;;;0.20;0.20;;;15.20;99.90;;;;;;5083370;28;20606;-80
2022/06/01 05:28:08;;;;;;;0.20;0.20;;;15.20;99.90;;;;;;5097403;28;20272;-79
2022/06/01 05:30:34;;;;;;;0.20;0.20;;;15.30;99.90;;;;;;5080138;28;20656;-78
2022/06/01 05:33:00;;;;;;;2.73;0.30;;;15.30;99.90;;;;;;5085056;28;20205;-78
2022/06/01 05:35:25;;;;;;;0.87;0.50;;;15.40;99.90;;;;;;5081051;28;20215;-79
2022/06/01 05:37:51;;;;;;;0.77;0.67;;;15.40;99.90;;;;;;5084725;28;20191;-79
2022/06/01 05:40:16;;;;;;;0.20;0.20;;;15.30;99.90;;;;;;5083128;28;20199;-79
2022/06/01 05:42:42;;;;;;;0.93;0.30;;;15.10;99.90;;;;;;5086792;28;20190;-80
2022/06/01 05:45:09;;;;;;;0.10;0.10;;;15.10;99.90;;;;;;5082611;28;20208;-82
2022/06/01 05:47:36;;;;;;;0.20;0.20;;;15.20;99.90;;;;;;5084375;28;20187;-82
2022/06/01 05:50:02;;;;;;;0.30;0.30;;;15.20;99.90;;;;;;5084918;28;20720;-82
2022/06/01 05:52:28;;;;;;;0.30;0.30;;;15.00;99.90;;;;;;5083590;28;20271;-82
2022/06/01 05:54:53;;;;;;;0.20;0.20;;;15.20;99.90;;;;;;5084241;28;20295;-82
2022/06/01 05:57:18;;;;;;;0.23;0.23;;;15.10;99.90;;;;;;5084092;28;20176;-82
2022/06/01 05:59:44;;;;;;;0.50;0.50;;;15.10;99.90;;;;;;5084905;28;20275;-82
2022/06/01 06:02:10;;;;;;;0.53;0.53;;;15.00;99.90;;;;;;5082827;28;20660;-82
2022/06/01 06:04:36;;;;;;;0.40;0.20;;;14.70;99.90;;;;;;5083105;28;20745;-82
2022/06/01 06:07:02;;;;;;;1.07;0.30;;;14.90;99.90;;;;;;5085074;28;20272;-82
2022/06/01 06:09:27;;;;;;;0.57;0.57;;;15.20;99.90;;;;;;5083942;28;20293;-82
2022/06/01 06:11:53;;;;;;;0.40;0.40;;;15.20;99.90;;;;;;5085666;28;20188;-82
2022/06/01 06:14:21;;;;;;;0.30;0.30;;;15.20;99.90;;;;;;5083788;28;20210;-83
2022/06/01 06:16:47;;;;;;;0.37;0.37;;;15.20;99.90;;;;;;5086074;28;20182;-82
2022/06/01 06:19:15;;;;;;;0.53;0.53;;;15.10;99.90;;;;;;5085206;28;20271;-82
2022/06/01 06:21:40;;;;;;;1.30;0.70;;;15.40;99.90;;;;;;5082784;28;20194;-82
2022/06/01 06:24:10;;;;;;;0.43;0.40;;;15.40;99.90;;;;;;5083823;28;20216;-82
2022/06/01 06:26:37;;;;;;;0.20;0.20;;;15.80;99.90;;;;;;5082398;28;20226;-83
2022/06/01 06:29:05;;;;;;;0.10;0.10;;;16.30;99.90;;;;;;5081694;28;20222;-83
2022/06/01 06:31:31;;;;;;;0.73;0.73;;;16.50;99.90;;;;;;5080944;28;20226;-83
2022/06/01 06:33:57;;;;;;;0.93;0.60;;;16.80;99.90;;;;;;5083011;28;20212;-80
2022/06/01 06:36:23;;;;;;;0.53;0.53;;;17.10;99.90;;;;;;5082932;28;20196;-81
2022/06/01 06:38:48;;;;;;;0.83;0.30;;;17.40;99.90;;;;;;5083795;28;20920;-81
2022/06/01 06:41:14;;;;;;;0.40;0.40;;;17.60;99.90;;;;;;5084099;28;20184;-80
2022/06/01 06:43:40;;;;;;;0.17;0.17;;;17.80;99.90;;;;;;5081599;28;20208;-81
2022/06/01 06:46:09;;;;;;;0.20;0.20;;;18.00;99.90;;;;;;5082665;28;20314;-81
2022/06/01 06:48:35;;;;;;;0.57;0.57;;;18.20;99.90;;;;;;5084151;28;20295;-81
2022/06/01 06:51:01;;;;;;;0.10;0.10;;;17.40;99.90;;;;;;5085451;28;20207;-81
2022/06/01 06:53:27;;;;;;;0.27;0.27;;;17.20;99.90;;;;;;5084445;28;20203;-81
2022/06/01 06:55:54;;;;;;;0.30;0.30;;;17.10;99.90;;;;;;5083037;28;20199;-81
2022/06/01 06:58:20;;;;;;;1.40;0.37;;;17.50;99.90;;;;;;5082377;28;20188;-81
2022/06/01 07:00:46;;;;;;;0.20;0.20;;;17.80;99.90;;;;;;5083190;28;20191;-81
2022/06/01 07:03:12;;;;;;;0.30;0.30;;;18.00;99.90;;;;;;5083024;28;20184;-81
2022/06/01 07:08:24;;;;;;;0.47;0.40;;;18.20;99.90;;;;;;5085195;28;20253;-81
2022/06/01 07:10:50;;;;;;;0.63;0.63;;;18.30;99.90;;;;;;5082624;28;20180;-81
2022/06/01 07:13:16;;;;;;;0.10;0.10;;;18.40;99.90;;;;;;5082294;28;21312;-80
2022/06/01 07:15:42;;;;;;;0.20;0.20;;;18.40;99.90;;;;;;5082580;28;20192;-80
2022/06/01 07:18:08;;;;;;;0.20;0.20;;;18.40;99.90;;;;;;5080783;28;20202;-80
2022/06/01 07:20:33;;;;;;;0.10;0.10;;;18.50;99.90;;;;;;5082240;28;20184;-80
2022/06/01 07:22:59;;;;;;;0.20;0.20;;;18.60;99.90;;;;;;5081495;28;21013;-79
2022/06/01 07:25:25;;;;;;;0.33;0.33;;;18.60;99.90;;;;;;5082665;28;20257;-79
2022/06/01 07:27:51;;;;;;;0.27;0.27;;;18.60;99.90;;;;;;5082881;28;20687;-80
2022/06/01 07:30:17;;;;;;;0.30;0.30;;;18.80;99.90;;;;;;5078604;28;20208;-81
2022/06/01 07:32:44;;;;;;;0.37;0.27;;;19.00;99.90;;;;;;5083566;28;20187;-81
2022/06/01 07:35:10;;;;;;;0.33;0.33;;;18.90;99.90;;;;;;5081951;28;20222;-80
2022/06/01 07:43:07;;;;;;;0.17;0.17;;;19.20;99.90;;;;;;5084751;28;20561;-80
2022/06/01 07:45:38;;;;;;;0.10;0.10;;;19.30;99.90;;;;;;5082281;28;20313;-81
2022/06/01 07:48:05;;;;;;;0.50;0.50;;;19.60;99.90;;;;;;5084526;28;20215;-80
2022/06/01 07:50:31;;;;;;;0.20;0.20;;;19.90;99.90;;;;;;5084386;28;20654;-81
2022/06/01 07:52:58;;;;;;;0.20;0.20;;;19.90;99.90;;;;;;5082378;28;20235;-80
2022/06/01 07:55:24;;;;;;;0.20;0.20;;;19.90;99.90;;;;;;5082233;28;20196;-80
2022/06/01 07:57:50;;;;;;;0.53;0.40;;;19.90;99.90;;;;;;5081715;28;20267;-81
2022/06/01 08:00:16;;;;;;;1.70;0.60;;;19.90;99.90;;;;;;5082263;28;20191;-80
2022/06/01 08:02:41;;;;;;;0.50;0.50;;;20.00;99.90;;;;;;5083117;28;20218;-80
2022/06/01 08:05:09;;;;;;;0.13;0.13;;;19.60;99.90;;;;;;5082344;28;20220;-80
2022/06/01 08:07:35;;;;;;;0.47;0.40;;;19.60;99.90;;;;;;5080857;28;20591;-80
2022/06/01 08:10:01;;;;;;;0.40;0.30;;;19.80;99.90;;;;;;5083768;28;20188;-80
2022/06/01 08:15:12;;;;;;;0.20;0.20;;;19.90;99.90;;;;;;5084167;28;20226;-80
2022/06/01 08:17:37;;;;;;;0.20;0.20;;;19.70;99.90;;;;;;5080451;28;21908;-80
2022/06/01 08:20:03;;;;;;;0.20;0.20;;;19.80;99.90;;;;;;5081834;28;20193;-80
2022/06/01 08:22:29;;;;;;;0.20;0.20;;;20.00;99.90;;;;;;5083224;28;20210;-80
2022/06/01 08:24:54;;;;;;;0.20;0.20;;;20.30;99.90;;;;;;5082287;28;20232;-81
2022/06/01 08:27:20;;;;;;;0.43;0.43;;;20.20;99.90;;;;;;5081633;28;20430;-81
2022/06/01 08:29:46;;;;;;;0.30;0.30;;;20.50;99.90;;;;;;5080807;28;20272;-81
2022/06/01 08:32:12;;;;;;;0.20;0.20;;;20.60;99.90;;;;;;5082275;28;20172;-80
2022/06/01 08:34:38;;;;;;;0.20;0.20;;;21.00;99.90;;;;;;5081394;28;20253;-80
2022/06/01 08:37:04;;;;;;;0.10;0.10;;;21.00;99.90;;;;;;5080470;28;20267;-81
2022/06/01 08:39:31;;;;;;;0.37;0.37;;;20.90;99.90;;;;;;5083579;28;20277;-81
2022/06/01 08:41:59;;;;;;;2.93;0.20;;;20.70;99.90;;;;;;5082233;28;20188;-81
2022/06/01 08:44:33;;;;;;;0.30;0.30;;;20.60;99.90;;;;;;5082718;28;20207;-80
2022/06/01 08:47:19;;;;;;;0.20;0.20;;;20.60;99.90;;;;;;5096978;28;20188;-82
2022/06/01 08:49:45;;;;;;;0.27;0.27;;;20.40;99.90;;;;;;5097521;28;20291;-80
2022/06/01 08:52:12;;;;;;;0.63;0.30;;;20.40;99.90;;;;;;5082468;28;20262;-82
2022/06/01 08:54:37;;;;;;;0.20;0.20;;;20.70;99.90;;;;;;5081927;28;20199;-80
2022/06/01 08:57:13;;;;;;;0.20;0.20;;;20.90;99.90;;;;;;5081123;28;20266;-80
2022/06/01 09:00:06;;;;;;;0.20;0.20;;;21.20;99.90;;;;;;5080485;28;20180;-80
2022/06/01 09:03:00;;;;;;;0.10;0.10;;;21.30;99.90;;;;;;5080058;28;21020;-80
2022/06/01 09:05:43;;;;;;;0.30;0.30;;;21.90;99.90;;;;;;5080263;28;20215;-80
2022/06/01 09:08:30;;;;;;;0.10;0.10;;;21.80;99.90;;;;;;5089454;28;20199;-80
2022/06/01 09:11:09;;;;;;;0.20;0.20;;;22.10;99.90;;;;;;5088132;28;20180;-80
2022/06/01 09:14:03;;;;;;;0.50;0.20;;;22.10;99.90;;;;;;5086267;28;20200;-80
2022/06/01 09:16:34;;;;;;;0.30;0.30;;;22.30;99.90;;;;;;5087491;28;20177;-80
2022/06/01 09:19:00;;;;;;;0.50;0.50;;;22.10;99.90;;;;;;5088071;28;20180;-80
2022/06/01 09:24:15;;;;;;;0.30;0.30;;;21.90;99.90;;;;;;5087990;28;20219;-81
2022/06/01 09:26:55;;;;;;;0.20;0.20;;;21.80;99.90;;;;;;5087557;28;20271;-81
2022/06/01 09:29:29;;;;;;;0.20;0.20;;;21.70;99.90;;;;;;5104213;28;20204;-81
2022/06/01 09:32:00;;;;;;;0.20;0.20;;;22.00;99.90;;;;;;5089538;28;20180;-81
2022/06/01 09:34:25;;;;;;;0.10;0.10;;;22.10;99.90;;;;;;5087640;28;20290;-81
2022/06/01 09:37:03;;;;;;;0.17;0.17;;;22.00;99.90;;;;;;5089736;28;20176;-81
2022/06/01 09:39:29;;;;;;;0.40;0.40;;;22.10;99.90;;;;;;5088975;28;20191;-81
2022/06/01 09:42:34;;;;;;;1.03;0.60;;;22.10;99.90;;;;;;5088917;28;20180;-81
2022/06/01 09:45:02;;;;;;;0.20;0.20;;;22.30;99.90;;;;;;5078267;28;20212;-82
2022/06/01 09:47:31;;;;;;;0.20;0.20;;;22.80;99.90;;;;;;5088573;28;20181;-81
2022/06/01 09:49:59;;;;;;;0.20;0.20;;;22.70;99.90;;;;;;5088994;28;20176;-81
2022/06/01 09:52:35;;;;;;;0.40;0.37;;;22.70;99.90;;;;;;5087897;28;20215;-82
2022/06/01 09:55:20;;;;;;;0.10;0.10;;;22.30;99.90;;;;;;5087828;28;20188;-82
2022/06/01 09:58:02;;;;;;;0.20;0.20;;;22.00;99.90;;;;;;5086854;28;20185;-82
2022/06/01 10:06:30;;;;;;;0.10;0.10;;;21.50;99.90;;;;;;5088511;28;20273;-81
2022/06/01 10:08:58;;;;;;;0.20;0.20;;;21.20;99.90;;;;;;5086130;28;20203;-82
2022/06/01 10:11:27;;;;;;;0.30;0.30;;;21.30;99.90;;;;;;5086883;28;20183;-82
2022/06/01 10:14:03;;;;;;;0.10;0.10;;;21.50;99.90;;;;;;5087554;28;20207;-82
2022/06/01 10:16:53;;;;;;;0.20;0.20;;;21.80;99.90;;;;;;5086692;28;20180;-82
2022/06/01 10:19:27;;;;;;;0.10;0.10;;;22.00;99.90;;;;;;5087741;28;20210;-82
2022/06/01 10:22:07;;;;;;;0.17;0.17;;;22.10;99.90;;;;;;5086520;28;20207;-82
2022/06/01 10:24:56;;;;;;;0.23;0.23;;;21.90;99.90;;;;;;5086260;28;20205;-81
2022/06/01 10:27:30;;;;;;;0.20;0.20;;;21.90;99.90;;;;;;5084828;28;20192;-82
2022/06/01 10:30:27;;;;;;;0.20;0.20;;;22.30;99.90;;;;;;5087233;28;20299;-81
2022/06/01 10:33:06;;;;;;;0.20;0.20;;;22.30;99.90;;;;;;5079167;28;20189;-82
2022/06/01 10:35:45;;;;;;;0.10;0.10;;;22.30;99.90;;;;;;5086078;28;20196;-82
2022/06/01 10:38:17;;;;;;;0.20;0.20;;;22.70;99.90;;;;;;5087307;28;20533;-82
2022/06/01 10:41:06;;;;;;;0.20;0.20;;;22.80;99.90;;;;;;5085823;28;20181;-82
2022/06/01 10:43:38;;;;;;;0.20;0.20;;;23.10;99.90;;;;;;5086363;28;20181;-82
2022/06/01 10:46:25;;;;;;;0.10;0.10;;;22.80;99.90;;;;;;5087991;28;20168;-82
2022/06/01 10:49:22;;;;;;;0.20;0.20;;;22.70;99.90;;;;;;5087419;28;20277;-82
2022/06/01 10:52:10;;;;;;;0.60;0.60;;;22.10;99.90;;;;;;5103251;28;20180;-82
2022/06/01 10:54:46;;;;;;;0.10;0.10;;;22.30;99.90;;;;;;5085328;28;20196;-82
2022/06/01 10:57:18;;;;;;;0.20;0.20;;;22.70;99.90;;;;;;5086788;28;20175;-82
2022/06/01 10:59:45;;;;;;;0.60;0.40;;;22.80;99.90;;;;;;5086116;28;20718;-82
2022/06/01 11:02:33;;;;;;;0.10;0.10;;;22.90;99.90;;;;;;5084938;28;20233;-82
2022/06/01 11:05:13;;;;;;;0.30;0.30;;;23.00;99.90;;;;;;5085043;28;20611;-82
2022/06/01 11:07:52;;;;;;;0.30;0.30;;;23.10;99.90;;;;;;5084594;28;20180;-82
2022/06/01 11:10:43;;;;;;;0.10;0.10;;;23.30;99.90;;;;;;5085869;28;20251;-82
2022/06/01 11:13:47;;;;;;;0.10;0.10;;;23.50;99.90;;;;;;5085784;28;20184;-82
2022/06/01 11:16:34;;;;;;;0.20;0.20;;;23.10;99.90;;;;;;5084196;28;20178;-82
2022/06/01 11:19:36;;;;;;;0.20;0.20;;;22.80;99.90;;;;;;5086425;28;20180;-82
2022/06/01 11:22:30;;;;;;;0.20;0.20;;;23.00;99.90;;;;;;5085540;28;20176;-82
2022/06/01 11:25:13;;;;;;;0.20;0.20;;;23.00;99.90;;;;;;5083907;28;20208;-82
2022/06/01 11:28:06;;;;;;;0.30;0.30;;;23.10;99.90;;;;;;5083589;28;20184;-82
2022/06/01 11:30:56;;;;;;;0.20;0.20;;;23.40;99.90;;;;;;5084947;28;20969;-82
2022/06/01 11:33:41;;;;;;;2.07;0.40;;;23.50;99.90;;;;;;5086575;28;20653;-82
2022/06/01 11:36:24;;;;;;;0.20;0.20;;;23.40;99.90;;;;;;5084772;28;20164;-82
2022/06/01 11:38:57;;;;;;;0.17;0.17;;;23.50;99.90;;;;;;5083641;28;20210;-82
2022/06/01 11:41:28;;;;;;;0.17;0.17;;;23.90;99.90;;;;;;5085855;28;20653;-83
2022/06/01 11:44:05;;;;;;;0.10;0.10;;;24.00;99.90;;;;;;5083527;28;20212;-82
2022/06/01 11:46:41;;;;;;;0.20;0.20;;;24.00;99.90;;;;;;5085901;28;20187;-82
2022/06/01 11:49:30;;;;;;;0.20;0.20;;;24.20;99.90;;;;;;5085288;28;20196;-82
2022/06/01 11:52:14;;;;;;;0.30;0.20;;;24.10;99.90;;;;;;5083994;28;20216;-82
2022/06/01 11:54:40;;;;;;;0.30;0.30;;;24.00;99.90;;;;;;5084240;28;20196;-82
2022/06/01 11:57:37;;;;;;;0.10;0.10;;;23.80;99.90;;;;;;5083673;28;20176;-82
2022/06/01 12:00:31;;;;;;;0.30;0.30;;;23.90;99.90;;;;;;5084503;28;20188;-82
2022/06/01 12:03:15;;;;;;;0.57;0.30;;;23.90;99.90;;;;;;5082641;28;21081;-82
2022/06/01 12:06:01;;;;;;;0.10;0.10;;;23.70;99.90;;;;;;5082458;28;20239;-82
2022/06/01 12:08:37;;;;;;;0.23;0.23;;;24.00;99.90;;;;;;5080505;28;20206;-80
2022/06/01 12:11:06;;;;;;;0.30;0.30;;;24.30;99.90;;;;;;5084338;28;20179;-80
2022/06/01 12:13:52;;;;;;;0.20;0.20;;;24.10;99.90;;;;;;5081128;28;20225;-79
2022/06/01 12:16:29;;;;;;;0.10;0.10;;;24.10;99.90;;;;;;5099381;28;20279;-80
2022/06/01 12:19:08;;;;;;;0.17;0.17;;;24.10;99.90;;;;;;5080339;28;20191;-81
2022/06/01 12:21:53;;;;;;;0.33;0.33;;;24.10;99.90;;;;;;5080180;28;20177;-80
2022/06/01 12:29:59;;;;;;;0.20;0.20;;;24.30;99.90;;;;;;5084989;28;20235;-80
2022/06/01 12:32:26;;;;;;;0.20;0.20;;;24.20;99.90;;;;;;5083908;28;20181;-80
2022/06/01 12:35:10;;;;;;;0.77;0.77;;;24.20;99.90;;;;;;5085112;28;20689;-80
2022/06/01 12:37:49;;;;;;;2.27;0.53;;;24.40;99.90;;;;;;5085594;28;20199;-80
2022/06/01 12:40:20;;;;;;;0.33;0.20;;;24.60;99.90;;;;;;5085754;28;20184;-80
2022/06/01 12:42:53;;;;;;;0.20;0.20;;;24.70;99.90;;;;;;5083192;28;20183;-80
2022/06/01 12:45:21;;;;;;;0.20;0.20;;;24.70;99.90;;;;;;5082343;28;20208;-80
2022/06/01 12:48:08;;;;;;;0.23;0.10;;;24.90;99.90;;;;;;5082043;28;20196;-80
2022/06/01 12:50:50;;;;;;;0.20;0.20;;;24.60;99.90;;;;;;5082307;28;20309;-80
2022/06/01 12:53:19;;;;;;;0.10;0.10;;;23.90;99.90;;;;;;5081365;28;20209;-80
2022/06/01 12:55:46;;;;;;;0.10;0.10;;;23.70;99.90;;;;;;5076143;28;20397;-80
2022/06/01 12:58:21;;;;;;;0.20;0.20;;;24.10;99.90;;;;;;5078998;28;20199;-80
2022/06/01 13:00:54;;;;;;;0.20;0.20;;;24.20;99.90;;;;;;5082109;28;20194;-80
2022/06/01 13:03:22;;;;;;;0.10;0.10;;;24.50;99.90;;;;;;5079974;28;20730;-80
2022/06/01 13:05:52;;;;;;;0.10;0.10;;;24.50;99.90;;;;;;5081286;28;20266;-80
2022/06/01 13:08:25;;;;;;;0.20;0.20;;;24.70;99.90;;;;;;5082228;28;20208;-80
2022/06/01 13:10:52;;;;;;;0.10;0.10;;;24.30;99.90;;;;;;5078565;28;20216;-80
2022/06/01 13:13:23;;;;;;;0.30;0.30;;;24.10;99.90;;;;;;5080880;28;20653;-79
2022/06/01 13:15:59;;;;;;;0.20;0.20;;;23.90;99.90;;;;;;5080217;28;20707;-80
2022/06/01 13:18:38;;;;;;;0.23;0.23;;;23.80;99.90;;;;;;5080108;28;20188;-79
2022/06/01 13:21:05;;;;;;;0.20;0.20;;;24.20;99.90;;;;;;5078231;28;21711;-79
2022/06/01 13:23:47;;;;;;;0.20;0.20;;;24.00;99.90;;;;;;5078922;28;20188;-79
2022/06/01 13:26:25;;;;;;;1.30;0.83;;;23.90;99.90;;;;;;5080537;28;20198;-79
2022/06/01 13:28:51;;;;;;;0.30;0.30;;;23.60;99.90;;;;;;5079092;28;20661;-79
2022/06/01 13:31:17;;;;;;;0.10;0.10;;;23.40;99.90;;;;;;5079939;28;20649;-79
2022/06/01 13:33:44;;;;;;;0.10;0.10;;;23.50;99.90;;;;;;5080558;28;20196;-79
2022/06/01 13:36:13;;;;;;;0.17;0.17;;;24.00;99.90;;;;;;5078176;28;20188;-79
2022/06/01 13:38:41;;;;;;;0.30;0.23;;;24.50;99.90;;;;;;5079955;28;20199;-79
2022/06/01 13:41:16;;;;;;;0.10;0.10;;;24.80;99.90;;;;;;5081908;28;20338;-79
2022/06/01 13:43:44;;;;;;;0.20;0.20;;;24.60;99.90;;;;;;5081626;28;21230;-79